createdAt,value
2019-04-20T00:01:47.253Z,47.97
2019-04-20T00:04:23.375Z,47.44
2019-04-20T00:06:54.095Z,47.25
2019-04-20T00:09:28.776Z,48.02
2019-04-20T00:12:07.077Z,48.60
2019-04-20T00:14:33.882Z,49.03
2019-04-20T00:17:03.439Z,48.61
2019-04-20T00:19:40.511Z,48.58
2019-04-20T00:22:15.159Z,48.37
2019-04-20T00:25:06.623Z,48.03
2019-04-20T00:28:15.264Z,47.99
2019-04-20T00:30:48.107Z,47.37
2019-04-20T00:33:09.551Z,47.23
2019-04-20T00:35:33.847Z,47.37
2019-04-20T00:38:05.622Z,47.54
2019-04-20T00:40:41.228Z,47.32
2019-04-20T00:43:19.626Z,47.22
2019-04-20T00:45:51.519Z,47.48
2019-04-20T00:48:32.665Z,47.91
2019-04-20T00:51:06.954Z,48.12
2019-04-20T00:53:31.384Z,48.23
2019-04-20T00:55:57.193Z,47.58
2019-04-20T00:58:35.952Z,47.70
2019-04-20T01:01:20.534Z,47.93
2019-04-20T01:03:52.692Z,48.56
2019-04-20T01:06:46.764Z,48.38
2019-04-20T01:09:24.450Z,48.41
2019-04-20T01:11:56.627Z,48.66
2019-04-20T01:14:35.855Z,48.89
2019-04-20T01:17:11.420Z,48.29
2019-04-20T01:19:33.915Z,48.15
2019-04-20T01:22:10.732Z,48.25
2019-04-20T01:24:43.281Z,48.21
2019-04-20T01:27:28.454Z,48.18
2019-04-20T01:29:49.401Z,48.61
2019-04-20T01:32:27.849Z,48.82
2019-04-20T01:34:58.564Z,48.90
2019-04-20T01:37:33.719Z,49.07
2019-04-20T01:40:15.001Z,49.84
2019-04-20T01:42:46.762Z,51.32
2019-04-20T01:45:27.064Z,51.12
2019-04-20T01:47:55.860Z,51.12
2019-04-20T01:50:29.645Z,51.94
2019-04-20T01:53:10.203Z,52.30
2019-04-20T01:55:49.368Z,52.16
2019-04-20T01:58:46.149Z,53.39
2019-04-20T02:01:25.151Z,53.85
2019-04-20T02:04:27.975Z,54.37
2019-04-20T02:07:00.450Z,54.69
2019-04-20T02:09:32.520Z,55.23
2019-04-20T02:12:10.353Z,55.53
2019-04-20T02:14:43.654Z,56.27
2019-04-20T02:17:19.638Z,56.51
2019-04-20T02:20:07.975Z,56.85
2019-04-20T02:22:34.183Z,56.78
2019-04-20T02:24:47.166Z,56.40
2019-04-20T02:27:20.631Z,55.92
2019-04-20T02:30:21.831Z,55.40
2019-04-20T02:33:07.051Z,55.55
2019-04-20T02:36:13.247Z,55.19
2019-04-20T02:39:00.501Z,54.97
2019-04-20T02:41:42.039Z,53.92
2019-04-20T02:44:00.747Z,53.35
2019-04-20T02:46:14.810Z,52.79
2019-04-20T02:49:04.586Z,52.67
2019-04-20T02:54:11.470Z,52.56
2019-04-20T02:56:41.833Z,52.77
2019-04-20T02:59:25.106Z,53.15
2019-04-20T03:01:52.150Z,53.48
2019-04-20T03:04:12.330Z,53.60
2019-04-20T03:06:55.978Z,53.97
2019-04-20T03:09:33.105Z,54.06
2019-04-20T03:12:08.232Z,54.29
2019-04-20T03:14:30.320Z,53.81
2019-04-20T03:17:18.210Z,53.64
2019-04-20T03:19:37.684Z,53.25
2019-04-20T03:22:21.327Z,53.01
2019-04-20T03:25:19.241Z,52.75
2019-04-20T03:28:25.906Z,52.95
2019-04-20T03:31:33.322Z,52.30
2019-04-20T03:36:19.834Z,52.45
2019-04-20T03:38:41.451Z,52.13
2019-04-20T03:41:09.175Z,52.59
2019-04-20T03:43:28.723Z,52.38
2019-04-20T03:46:31.032Z,52.50
2019-04-20T03:49:38.469Z,52.93
2019-04-20T03:52:25.897Z,53.98
2019-04-20T03:55:16.092Z,55.07
2019-04-20T03:58:03.200Z,56.24
2019-04-20T04:00:54.259Z,57.44
2019-04-20T04:03:47.320Z,58.76
2019-04-20T04:06:23.449Z,59.74
2019-04-20T04:08:58.724Z,60.40
2019-04-20T04:11:31.190Z,61.15
2019-04-20T04:13:48.480Z,61.59
2019-04-20T04:16:21.976Z,62.68
2019-04-20T04:19:21.592Z,63.91
2019-04-20T04:22:26.238Z,63.98
2019-04-20T04:25:28.712Z,64.07
2019-04-20T04:28:10.832Z,64.06
2019-04-20T04:30:43.085Z,64.00
2019-04-20T04:33:40.272Z,64.38
2019-04-20T04:35:55.722Z,64.35
2019-04-20T04:38:36.279Z,64.18
2019-04-20T04:41:08.447Z,63.85
2019-04-20T04:43:36.004Z,63.74
2019-04-20T04:46:07.942Z,63.76
2019-04-20T04:49:23.313Z,63.95
2019-04-20T04:51:58.568Z,63.77
2019-04-20T04:54:50.340Z,63.95
2019-04-20T04:57:24.780Z,63.94
2019-04-20T04:59:57.259Z,64.00
2019-04-20T05:02:33.075Z,63.70
2019-04-20T05:05:47.340Z,63.59
2019-04-20T05:08:18.805Z,63.69
2019-04-20T05:10:43.717Z,63.62
2019-04-20T05:13:21.937Z,63.45
2019-04-20T05:16:09.777Z,63.76
2019-04-20T05:18:55.487Z,63.86
2019-04-20T05:22:01.305Z,63.62
2019-04-20T05:24:48.443Z,63.59
2019-04-20T05:27:36.098Z,63.13
2019-04-20T05:29:46.761Z,63.18
2019-04-20T05:32:31.380Z,62.74
2019-04-20T05:35:16.414Z,62.95
2019-04-20T05:37:59.776Z,60.79
2019-04-20T05:40:21.913Z,61.63
2019-04-20T05:42:59.393Z,60.73
2019-04-20T05:46:25.352Z,60.22
2019-04-20T05:49:11.736Z,60.33
2019-04-20T05:51:39.743Z,60.02
2019-04-20T05:54:13.584Z,59.00
2019-04-20T05:56:45.702Z,53.63
2019-04-20T05:59:19.177Z,48.85
2019-04-20T06:01:58.865Z,45.09
2019-04-20T06:05:00.379Z,41.27
2019-04-20T06:07:25.197Z,37.22
2019-04-20T06:09:54.503Z,35.76
2019-04-20T06:12:29.408Z,33.47
2019-04-20T06:15:21.161Z,33.18
2019-04-20T06:18:40.090Z,33.61
2019-04-20T06:21:29.432Z,32.38
2019-04-20T06:24:16.781Z,31.66
2019-04-20T06:26:59.265Z,31.70
2019-04-20T06:30:08.873Z,32.33
2019-04-20T06:33:53.352Z,30.51
2019-04-20T06:36:32.552Z,31.59
2019-04-20T06:39:32.627Z,31.61
2019-04-20T06:42:21.980Z,31.60
2019-04-20T06:45:07.350Z,31.57
2019-04-20T06:48:11.106Z,31.84
2019-04-20T06:51:25.008Z,30.18
2019-04-20T06:54:47.155Z,30.96
2019-04-20T06:57:29.209Z,32.17
2019-04-20T07:00:17.215Z,32.89
2019-04-20T07:02:53.094Z,32.29
2019-04-20T07:05:39.588Z,32.39
2019-04-20T07:08:35.088Z,31.44
2019-04-20T07:11:18.694Z,31.97
2019-04-20T07:13:38.696Z,32.39
2019-04-20T07:16:36.254Z,31.61
2019-04-20T07:19:41.659Z,31.55
2019-04-20T07:22:37.569Z,30.81
2019-04-20T07:25:40.664Z,31.02
2019-04-20T07:28:21.842Z,29.45
2019-04-20T07:31:06.824Z,28.19
2019-04-20T07:34:22.944Z,29.20
2019-04-20T07:40:38.352Z,29.00
2019-04-20T07:44:10.700Z,28.63
2019-04-20T07:47:13.708Z,27.96
2019-04-20T07:49:52.600Z,28.43
2019-04-20T07:52:33.919Z,27.72
2019-04-20T07:55:56.863Z,27.49
2019-04-20T07:58:55.304Z,27.18
2019-04-20T08:02:13.780Z,26.55
2019-04-20T08:04:59.568Z,27.31
2019-04-20T08:08:27.131Z,26.73
2019-04-20T08:11:37.999Z,28.05
2019-04-20T08:14:32.017Z,26.55
2019-04-20T08:20:19.108Z,27.62
2019-04-20T08:23:38.876Z,28.02
2019-04-20T08:26:28.859Z,27.09
2019-04-20T08:30:02.020Z,26.15
2019-04-20T08:33:14.519Z,25.85
2019-04-20T08:36:18.642Z,26.78
2019-04-20T08:39:45.111Z,25.95
2019-04-20T08:42:32.598Z,27.52
2019-04-20T08:45:10.947Z,27.49
2019-04-20T08:47:45.871Z,26.86
2019-04-20T08:50:48.252Z,26.87
2019-04-20T08:53:44.650Z,27.06
2019-04-20T08:56:31.948Z,26.72
2019-04-20T08:59:18.903Z,27.09
2019-04-20T09:01:58.087Z,26.77
2019-04-20T09:04:38.753Z,25.55
2019-04-20T09:07:29.781Z,25.93
2019-04-20T09:10:28.243Z,27.32
2019-04-20T09:13:08.361Z,28.66
2019-04-20T09:15:34.081Z,27.24
2019-04-20T09:18:52.444Z,27.97
2019-04-20T09:22:25.183Z,27.93
2019-04-20T09:25:57.705Z,26.93
2019-04-20T09:28:32.280Z,26.43
2019-04-20T09:31:25.851Z,26.74
2019-04-20T09:34:24.741Z,26.96
2019-04-20T09:37:40.770Z,26.33
2019-04-20T09:40:40.230Z,25.81
2019-04-20T09:43:43.149Z,27.05
2019-04-20T09:46:26.454Z,27.72
2019-04-20T09:49:18.602Z,28.73
2019-04-20T09:52:15.749Z,29.49
2019-04-20T09:54:54.869Z,29.89
2019-04-20T09:57:44.026Z,29.25
2019-04-20T10:00:38.277Z,29.50
2019-04-20T10:03:00.289Z,29.89
2019-04-20T10:05:59.283Z,30.01
2019-04-20T10:09:00.408Z,30.69
2019-04-20T10:11:50.449Z,30.62
2019-04-20T10:14:40.706Z,30.57
2019-04-20T10:17:33.254Z,30.68
2019-04-20T10:20:11.849Z,30.15
2019-04-20T10:23:09.400Z,30.99
2019-04-20T10:26:10.372Z,30.28
2019-04-20T10:29:19.646Z,30.58
2019-04-20T10:32:00.170Z,30.49
2019-04-20T10:34:32.781Z,31.07
2019-04-20T10:37:27.251Z,30.91
2019-04-20T10:40:34.651Z,30.84
2019-04-20T10:43:06.199Z,31.25
2019-04-20T10:46:00.667Z,31.03
2019-04-20T10:48:40.307Z,31.45
2019-04-20T10:51:29.522Z,31.46
2019-04-20T10:54:40.727Z,30.83
2019-04-20T10:57:15.424Z,31.24
2019-04-20T10:59:52.983Z,31.38
2019-04-20T11:02:53.520Z,31.16
2019-04-20T11:05:26.507Z,31.12
2019-04-20T11:08:20.783Z,30.53
2019-04-20T11:11:32.003Z,29.85
2019-04-20T11:14:17.966Z,29.96
2019-04-20T11:17:07.153Z,29.59
2019-04-20T11:19:41.144Z,29.27
2019-04-20T11:22:40.214Z,29.83
2019-04-20T11:25:16.583Z,29.85
2019-04-20T11:28:14.288Z,30.15
2019-04-20T11:31:05.919Z,29.41
2019-04-20T11:33:58.301Z,29.57
2019-04-20T11:36:50.824Z,29.88
2019-04-20T11:39:41.171Z,29.30
2019-04-20T11:42:13.997Z,29.94
2019-04-20T11:45:04.638Z,29.58
2019-04-20T11:47:57.801Z,29.83
2019-04-20T11:51:05.515Z,30.14
2019-04-20T11:54:14.596Z,29.92
2019-04-20T11:57:04.260Z,29.48
2019-04-20T11:59:59.217Z,29.13
2019-04-20T12:02:46.509Z,28.32
2019-04-20T12:06:07.073Z,27.12
2019-04-20T12:08:42.735Z,27.69
2019-04-20T12:12:14.183Z,27.25
2019-04-20T12:14:39.260Z,27.21
2019-04-20T12:17:19.779Z,27.03
2019-04-20T12:20:29.055Z,25.79
2019-04-20T12:23:20.225Z,25.25
2019-04-20T12:25:56.301Z,23.87
2019-04-20T12:28:35.815Z,24.36
2019-04-20T12:31:23.693Z,25.06
2019-04-20T12:34:02.189Z,25.40
2019-04-20T12:36:58.256Z,25.33
2019-04-20T12:39:53.317Z,26.54
2019-04-20T12:42:54.940Z,25.35
2019-04-20T12:45:37.782Z,25.00
2019-04-20T12:48:35.525Z,24.51
2019-04-20T12:51:33.796Z,25.06
2019-04-20T12:54:39.960Z,24.12
2019-04-20T12:57:28.936Z,23.81
2019-04-20T13:00:03.571Z,25.10
2019-04-20T13:02:54.143Z,24.42
2019-04-20T13:05:25.664Z,24.07
2019-04-20T13:08:13.763Z,23.99
2019-04-20T13:10:56.200Z,23.73
2019-04-20T13:13:46.682Z,23.58
2019-04-20T13:16:32.279Z,24.76
2019-04-20T13:19:51.530Z,23.41
2019-04-20T13:22:25.594Z,23.38
2019-04-20T13:25:01.028Z,22.98
2019-04-20T13:27:38.846Z,22.63
2019-04-20T13:30:50.004Z,23.35
2019-04-20T13:33:29.634Z,23.02
2019-04-20T13:36:42.094Z,23.06
2019-04-20T13:39:53.058Z,22.85
2019-04-20T13:42:43.695Z,22.79
2019-04-20T13:45:42.662Z,23.75
2019-04-20T13:48:27.158Z,22.72
2019-04-20T13:51:05.578Z,22.82
2019-04-20T13:53:57.514Z,23.35
2019-04-20T13:57:11.174Z,23.22
2019-04-20T13:59:53.776Z,22.98
2019-04-20T14:02:53.939Z,22.90
2019-04-20T14:05:53.021Z,23.08
2019-04-20T14:08:41.233Z,22.57
2019-04-20T14:11:17.722Z,23.75
2019-04-20T14:14:27.203Z,23.34
2019-04-20T14:17:19.092Z,23.38
2019-04-20T14:20:12.130Z,22.62
2019-04-20T14:23:07.338Z,23.19
2019-04-20T14:25:55.176Z,23.30
2019-04-20T14:29:07.272Z,22.60
2019-04-20T14:32:00.574Z,23.20
2019-04-20T14:34:35.115Z,24.55
2019-04-20T14:37:20.341Z,23.53
2019-04-20T14:39:56.447Z,23.01
2019-04-20T14:42:41.872Z,23.79
2019-04-20T14:45:08.916Z,23.23
2019-04-20T14:47:41.455Z,22.84
2019-04-20T14:50:13.759Z,24.26
2019-04-20T14:52:45.044Z,22.82
2019-04-20T14:55:17.740Z,22.55
2019-04-20T14:57:49.891Z,22.22
2019-04-20T15:00:45.795Z,22.47
2019-04-20T15:03:45.537Z,22.13
2019-04-20T15:06:17.848Z,22.46
2019-04-20T15:08:50.438Z,21.82
2019-04-20T15:11:22.972Z,21.81
2019-04-20T15:13:54.360Z,21.93
2019-04-20T15:16:26.582Z,22.49
2019-04-20T15:19:15.847Z,22.67
2019-04-20T15:21:49.479Z,22.61
2019-04-20T15:24:21.817Z,22.78
2019-04-20T15:26:54.248Z,22.77
2019-04-20T15:29:26.424Z,23.25
2019-04-20T15:31:57.800Z,22.89
2019-04-20T15:34:29.175Z,22.29
2019-04-20T15:37:00.528Z,22.82
2019-04-20T15:39:32.859Z,22.59
2019-04-20T15:42:09.651Z,22.79
2019-04-20T15:44:47.253Z,22.85
2019-04-20T15:47:22.353Z,22.03
2019-04-20T15:49:58.085Z,22.22
2019-04-20T15:52:36.790Z,22.42
2019-04-20T15:55:11.840Z,22.87
2019-04-20T15:57:38.768Z,22.82
2019-04-20T16:00:10.999Z,22.45
2019-04-20T16:03:05.444Z,22.46
2019-04-20T16:05:56.522Z,21.91
2019-04-20T16:08:32.419Z,21.41
2019-04-20T16:11:15.121Z,20.85
2019-04-20T16:13:50.510Z,21.84
2019-04-20T16:16:19.930Z,21.86
2019-04-20T16:18:52.915Z,21.83
2019-04-20T16:21:27.624Z,22.53
2019-04-20T16:24:10.910Z,22.23
2019-04-20T16:27:07.646Z,22.44
2019-04-20T16:29:39.743Z,22.10
2019-04-20T16:32:12.217Z,22.39
2019-04-20T16:34:44.531Z,22.80
2019-04-20T16:37:16.908Z,23.21
2019-04-20T16:39:48.443Z,23.50
2019-04-20T16:42:20.272Z,23.60
2019-04-20T16:44:51.680Z,24.43
2019-04-20T16:47:24.040Z,24.33
2019-04-20T16:49:55.349Z,24.04
2019-04-20T16:52:26.740Z,23.63
2019-04-20T16:54:57.960Z,23.71
2019-04-20T16:57:29.853Z,23.87
2019-04-20T17:00:02.788Z,23.30
2019-04-20T17:02:34.572Z,23.54
2019-04-20T17:05:07.146Z,23.93
2019-04-20T17:07:42.847Z,24.36
2019-04-20T17:10:20.070Z,24.77
2019-04-20T17:12:53.683Z,25.00
2019-04-20T17:15:25.530Z,25.00
2019-04-20T17:17:58.805Z,25.32
2019-04-20T17:20:30.644Z,25.40
2019-04-20T17:23:04.848Z,25.44
2019-04-20T17:25:35.309Z,25.22
2019-04-20T17:28:32.851Z,25.26
2019-04-20T17:31:15.906Z,25.31
2019-04-20T17:34:27.186Z,25.96
2019-04-20T17:36:42.271Z,26.29
2019-04-20T17:39:25.261Z,26.46
2019-04-20T17:42:03.414Z,26.44
2019-04-20T17:44:35.950Z,26.49
2019-04-20T17:47:03.806Z,27.26
2019-04-20T17:49:39.101Z,27.76
2019-04-20T17:52:26.629Z,28.11
2019-04-20T17:54:43.119Z,28.34
2019-04-20T17:57:15.221Z,28.43
2019-04-20T17:59:53.183Z,28.78
2019-04-20T18:03:06.036Z,29.20
2019-04-20T18:05:48.182Z,29.63
2019-04-20T18:08:22.442Z,29.70
2019-04-20T18:10:47.493Z,29.85
2019-04-20T18:13:14.257Z,30.06
2019-04-20T18:15:58.883Z,30.07
2019-04-20T18:18:44.092Z,30.59
2019-04-20T18:21:26.723Z,31.02
2019-04-20T18:23:58.291Z,31.10
2019-04-20T18:26:47.951Z,31.32
2019-04-20T18:29:20.217Z,31.55
2019-04-20T18:31:51.415Z,31.52
2019-04-20T18:34:51.243Z,31.32
2019-04-20T18:37:21.411Z,31.51
2019-04-20T18:39:57.270Z,31.62
2019-04-20T18:42:32.367Z,32.04
2019-04-20T18:45:16.030Z,31.71
2019-04-20T18:47:49.022Z,31.77
2019-04-20T18:50:10.528Z,31.94
2019-04-20T18:52:40.150Z,31.70
2019-04-20T18:55:17.313Z,31.84
2019-04-20T18:57:44.892Z,31.86
2019-04-20T19:00:28.048Z,32.92
2019-04-20T19:02:56.069Z,32.59
2019-04-20T19:05:26.440Z,32.58
2019-04-20T19:08:05.217Z,32.88
2019-04-20T19:10:36.805Z,32.90
2019-04-20T19:13:21.538Z,32.72
2019-04-20T19:16:16.504Z,32.74
2019-04-20T19:18:56.043Z,32.64
2019-04-20T19:21:15.173Z,32.99
2019-04-20T19:23:55.962Z,33.05
2019-04-20T19:26:22.818Z,32.96
2019-04-20T19:28:56.431Z,32.84
2019-04-20T19:31:42.367Z,33.22
2019-04-20T19:34:16.722Z,32.92
2019-04-20T19:36:38.891Z,33.16
2019-04-20T19:39:24.484Z,33.33
2019-04-20T19:41:49.781Z,33.36
2019-04-20T19:44:24.161Z,33.62
2019-04-20T19:47:11.375Z,33.71
2019-04-20T19:49:32.880Z,34.01
2019-04-20T19:52:36.957Z,33.96
2019-04-20T19:54:50.826Z,34.28
2019-04-20T19:57:22.172Z,34.09
2019-04-20T19:59:41.266Z,34.47
2019-04-20T20:02:11.781Z,34.17
2019-04-20T20:05:04.070Z,34.67
2019-04-20T20:07:37.966Z,34.81
2019-04-20T20:10:08.704Z,35.47
2019-04-20T20:12:47.053Z,35.42
2019-04-20T20:15:22.031Z,35.81
2019-04-20T20:18:11.016Z,35.71
2019-04-20T20:20:47.617Z,35.78
2019-04-20T20:23:01.869Z,35.87
2019-04-20T20:25:38.426Z,36.28
2019-04-20T20:28:18.821Z,36.68
2019-04-20T20:30:56.607Z,36.81
2019-04-20T20:33:34.901Z,36.94
2019-04-20T20:36:02.233Z,37.32
2019-04-20T20:38:31.551Z,37.10
2019-04-20T20:41:08.715Z,37.13
2019-04-20T20:43:47.467Z,37.15
2019-04-20T20:46:16.224Z,36.79
2019-04-20T20:49:03.469Z,37.32
2019-04-20T20:51:34.494Z,36.69
2019-04-20T20:53:54.601Z,36.88
2019-04-20T20:56:27.420Z,36.73
2019-04-20T20:59:00.883Z,36.90
2019-04-20T21:01:26.450Z,36.91
2019-04-20T21:03:58.498Z,36.92
2019-04-20T21:06:30.691Z,36.77
2019-04-20T21:09:03.661Z,36.48
2019-04-20T21:11:36.352Z,36.96
2019-04-20T21:14:08.941Z,36.56
2019-04-20T21:16:48.801Z,36.49
2019-04-20T21:19:29.609Z,35.83
2019-04-20T21:21:57.094Z,36.07
2019-04-20T21:24:28.747Z,35.96
2019-04-20T21:27:07.021Z,35.69
2019-04-20T21:29:37.842Z,35.72
2019-04-20T21:32:12.567Z,35.37
2019-04-20T21:34:42.418Z,35.33
2019-04-20T21:37:18.929Z,35.24
2019-04-20T21:39:53.920Z,35.25
2019-04-20T21:42:24.402Z,35.21
2019-04-20T21:45:04.592Z,35.07
2019-04-20T21:47:31.538Z,35.26
2019-04-20T21:50:18.754Z,35.21
2019-04-20T21:52:38.747Z,35.40
2019-04-20T21:55:06.013Z,35.26
2019-04-20T21:57:44.724Z,35.13
2019-04-20T22:00:26.172Z,35.29
2019-04-20T22:02:56.734Z,34.96
2019-04-20T22:05:21.406Z,34.84
2019-04-20T22:07:52.667Z,34.80
2019-04-20T22:10:27.670Z,34.99
2019-04-20T22:13:00.966Z,34.65
2019-04-20T22:15:33.584Z,35.10
2019-04-20T22:18:06.819Z,34.90
2019-04-20T22:20:49.432Z,35.04
2019-04-20T22:23:23.146Z,35.51
2019-04-20T22:25:56.547Z,35.49
2019-04-20T22:28:16.025Z,35.81
2019-04-20T22:30:48.380Z,35.65
2019-04-20T22:33:31.342Z,35.46
2019-04-20T22:36:00.889Z,35.49
2019-04-20T22:38:55.839Z,35.87
2019-04-20T22:41:24.713Z,35.65
2019-04-20T22:43:54.814Z,36.74
2019-04-20T22:46:31.757Z,36.37
2019-04-20T22:49:17.395Z,36.38
2019-04-20T22:51:44.851Z,36.26
2019-04-20T22:54:21.661Z,36.27
2019-04-20T22:56:51.387Z,36.11
2019-04-20T22:59:16.486Z,36.27
2019-04-20T23:01:48.540Z,36.45
2019-04-20T23:04:17.362Z,36.89
2019-04-20T23:06:51.638Z,36.72
2019-04-20T23:09:22.626Z,36.82
2019-04-20T23:12:01.010Z,37.23
2019-04-20T23:14:27.028Z,37.10
2019-04-20T23:16:58.270Z,37.58
2019-04-20T23:19:38.222Z,37.39
2019-04-20T23:22:05.375Z,37.34
2019-04-20T23:24:35.627Z,37.04
2019-04-20T23:27:13.969Z,37.06
2019-04-20T23:29:41.641Z,37.43
2019-04-20T23:32:14.556Z,37.23
2019-04-20T23:34:49.027Z,37.57
2019-04-20T23:37:25.472Z,38.41
2019-04-20T23:39:53.100Z,38.30
2019-04-20T23:42:33.585Z,38.52
2019-04-20T23:45:31.422Z,38.35
2019-04-20T23:48:04.861Z,38.54
2019-04-20T23:50:50.746Z,39.08
2019-04-20T23:53:25.719Z,39.24
2019-04-20T23:55:41.733Z,39.66
2019-04-20T23:58:14.691Z,39.55
